createdAt,value
2018-06-28T00:01:46.895Z,6.53
2018-06-28T00:07:17.004Z,5.17
2018-06-28T00:12:47.318Z,8.73
2018-06-28T00:18:17.139Z,10.18
2018-06-28T00:23:47.219Z,9.18
2018-06-28T00:29:17.261Z,6.65
2018-06-28T00:34:47.290Z,5.83
2018-06-28T00:40:17.075Z,7.17
2018-06-28T00:45:47.168Z,6.45
2018-06-28T00:51:16.575Z,6.20
2018-06-28T00:56:46.583Z,5.25
2018-06-28T01:02:16.447Z,6.47
2018-06-28T01:07:46.737Z,5.97
2018-06-28T01:13:17.384Z,5.60
2018-06-28T01:18:47.734Z,6.55
2018-06-28T01:24:17.538Z,6.87
2018-06-28T01:29:47.572Z,7.60
2018-06-28T01:35:18.299Z,5.20
2018-06-28T01:40:48.445Z,5.20
2018-06-28T01:46:18.714Z,6.40
2018-06-28T01:51:48.404Z,5.42
2018-06-28T01:57:18.415Z,5.70
2018-06-28T02:02:47.929Z,6.15
2018-06-28T02:08:17.597Z,5.22
2018-06-28T02:13:47.366Z,4.90
2018-06-28T02:19:17.273Z,6.85
2018-06-28T02:24:46.971Z,6.50
2018-06-28T02:30:16.616Z,5.65
2018-06-28T02:35:46.160Z,6.30
2018-06-28T02:41:15.793Z,6.60
2018-06-28T02:46:46.117Z,5.08
2018-06-28T02:52:15.578Z,6.12
2018-06-28T02:57:45.757Z,4.70
2018-06-28T03:03:15.775Z,5.15
2018-06-28T03:08:46.198Z,5.25
2018-06-28T03:14:15.621Z,6.35
2018-06-28T03:19:45.739Z,6.65
2018-06-28T03:25:15.814Z,7.47
2018-06-28T03:30:45.658Z,6.65
2018-06-28T03:36:15.470Z,6.37
2018-06-28T03:41:45.312Z,7.40
2018-06-28T03:47:15.197Z,7.55
2018-06-28T03:52:45.181Z,6.20
2018-06-28T03:58:15.111Z,9.33
2018-06-28T04:03:44.814Z,9.15
2018-06-28T04:09:15.244Z,8.95
2018-06-28T04:14:46.067Z,9.58
2018-06-28T04:20:16.573Z,8.00
2018-06-28T04:25:47.124Z,8.08
2018-06-28T04:31:16.932Z,11.45
2018-06-28T04:36:47.800Z,14.07
2018-06-28T04:42:18.316Z,9.78
2018-06-28T04:47:48.021Z,12.85
2018-06-28T04:53:17.644Z,14.35
2018-06-28T04:58:47.565Z,12.88
2018-06-28T05:04:17.265Z,11.78
2018-06-28T05:09:47.496Z,11.33
2018-06-28T05:15:17.561Z,12.80
2018-06-28T05:20:47.670Z,12.33
2018-06-28T05:26:17.492Z,12.47
2018-06-28T05:31:47.576Z,12.93
2018-06-28T05:37:17.283Z,14.70
2018-06-28T05:42:46.980Z,16.65
2018-06-28T05:48:16.714Z,13.98
2018-06-28T05:53:46.993Z,14.68
2018-06-28T05:59:17.472Z,14.45
2018-06-28T06:04:47.874Z,14.73
2018-06-28T06:10:17.614Z,17.12
2018-06-28T06:15:47.573Z,13.78
2018-06-28T06:21:17.500Z,15.68
2018-06-28T06:26:47.750Z,12.65
2018-06-28T06:32:17.894Z,12.25
2018-06-28T06:37:47.580Z,15.25
2018-06-28T06:43:17.589Z,13.18
2018-06-28T06:48:48.224Z,15.63
2018-06-28T06:54:17.715Z,15.30
2018-06-28T06:59:47.381Z,13.62
2018-06-28T07:05:17.181Z,14.53
2018-06-28T07:10:47.109Z,18.20
2018-06-28T07:16:17.195Z,17.85
2018-06-28T07:21:47.376Z,16.07
2018-06-28T07:27:17.848Z,19.60
2018-06-28T07:32:47.577Z,19.27
2018-06-28T07:38:17.976Z,26.50
2018-06-28T07:43:47.952Z,20.88
2018-06-28T07:49:17.805Z,22.27
2018-06-28T07:54:47.805Z,20.50
2018-06-28T08:00:18.695Z,18.00
2018-06-28T08:05:48.365Z,20.60
2018-06-28T08:11:17.831Z,25.00
2018-06-28T08:16:48.177Z,16.25
2018-06-28T08:22:18.222Z,20.97
2018-06-28T08:27:48.317Z,13.80
2018-06-28T08:33:19.162Z,13.62
2018-06-28T08:38:48.920Z,16.17
2018-06-28T08:44:19.034Z,15.25
2018-06-28T08:49:48.608Z,15.72
2018-06-28T08:55:19.101Z,20.32
2018-06-28T09:00:48.952Z,15.40
2018-06-28T09:06:19.002Z,17.98
2018-06-28T09:11:48.559Z,18.05
2018-06-28T09:17:18.524Z,18.80
2018-06-28T09:22:48.577Z,16.48
2018-06-28T09:28:18.591Z,18.70
2018-06-28T09:33:48.649Z,18.70
2018-06-28T09:39:18.605Z,16.77
2018-06-28T09:44:48.813Z,17.50
2018-06-28T09:50:18.551Z,17.07
2018-06-28T09:55:48.140Z,17.82
2018-06-28T10:01:18.460Z,17.73
2018-06-28T10:06:48.371Z,17.92
2018-06-28T10:12:18.295Z,16.10
2018-06-28T10:17:48.204Z,19.35
2018-06-28T10:23:17.789Z,18.98
2018-06-28T10:28:47.927Z,23.15
2018-06-28T10:34:17.949Z,17.42
2018-06-28T10:39:47.601Z,19.50
2018-06-28T10:45:17.441Z,21.05
2018-06-28T10:50:47.097Z,16.80
2018-06-28T10:56:17.135Z,18.15
2018-06-28T11:01:47.334Z,16.25
2018-06-28T11:07:17.096Z,17.50
2018-06-28T11:12:46.647Z,18.17
2018-06-28T11:18:17.011Z,17.67
2018-06-28T11:23:47.663Z,17.57
2018-06-28T11:29:17.207Z,17.75
2018-06-28T11:34:46.625Z,19.82
2018-06-28T11:40:16.341Z,17.17
2018-06-28T11:45:46.339Z,20.05
2018-06-28T11:51:16.376Z,20.82
2018-06-28T11:56:46.876Z,24.30
2018-06-28T12:02:17.365Z,20.90
2018-06-28T12:07:46.907Z,20.85
2018-06-28T12:13:16.788Z,23.55
2018-06-28T12:18:47.407Z,23.73
2018-06-28T12:24:18.075Z,21.62
2018-06-28T12:29:47.772Z,22.25
2018-06-28T12:35:18.064Z,21.00
2018-06-28T12:40:48.344Z,23.32
2018-06-28T12:46:18.092Z,27.45
2018-06-28T12:52:04.447Z,24.52
2018-06-28T12:57:33.639Z,25.05
2018-06-28T13:03:02.856Z,24.90
2018-06-28T13:08:32.035Z,39.73
2018-06-28T13:14:01.232Z,32.40
2018-06-28T13:19:30.394Z,29.85
2018-06-28T13:24:59.643Z,27.23
2018-06-28T13:30:28.877Z,33.28
2018-06-28T13:35:58.085Z,26.55
2018-06-28T13:41:27.647Z,29.20
2018-06-28T13:46:56.688Z,28.10
2018-06-28T13:52:25.627Z,29.55
2018-06-28T13:57:55.218Z,29.27
2018-06-28T14:03:26.192Z,30.25
2018-06-28T14:08:55.694Z,32.38
2018-06-28T14:14:25.095Z,26.85
2018-06-28T14:19:54.486Z,28.20
2018-06-28T14:25:24.465Z,22.62
2018-06-28T14:30:53.888Z,20.37
2018-06-28T14:36:23.581Z,8.30
2018-06-28T14:41:53.516Z,18.85
2018-06-28T14:47:23.052Z,16.67
2018-06-28T14:52:52.819Z,20.52
2018-06-28T14:58:22.565Z,19.52
2018-06-28T15:03:53.320Z,22.15
2018-06-28T15:09:22.895Z,14.68
2018-06-28T15:14:52.724Z,11.38
2018-06-28T15:20:22.956Z,9.90
2018-06-28T15:25:53.014Z,16.40
2018-06-28T15:31:22.727Z,12.65
2018-06-28T15:36:52.525Z,18.48
2018-06-28T15:42:22.210Z,12.70
2018-06-28T15:47:55.075Z,15.40
2018-06-28T15:53:24.569Z,12.28
2018-06-28T15:58:54.123Z,10.05
2018-06-28T16:04:24.085Z,11.65
2018-06-28T16:09:53.832Z,12.20
2018-06-28T16:15:23.633Z,11.45
2018-06-28T16:20:53.470Z,12.47
2018-06-28T16:26:22.994Z,14.50
2018-06-28T16:31:53.618Z,11.45
2018-06-28T16:37:24.845Z,11.85
2018-06-28T16:42:54.930Z,12.55
2018-06-28T16:48:24.280Z,12.50
2018-06-28T16:53:54.096Z,13.00
2018-06-28T16:59:24.009Z,14.10
2018-06-28T17:04:53.604Z,12.90
2018-06-28T17:10:23.013Z,12.10
2018-06-28T17:15:52.790Z,11.40
2018-06-28T17:21:22.630Z,14.45
2018-06-28T17:26:52.409Z,16.97
2018-06-28T17:32:22.832Z,12.68
2018-06-28T17:37:52.955Z,12.03
2018-06-28T17:43:22.860Z,12.60
2018-06-28T17:48:53.256Z,13.90
2018-06-28T17:54:23.140Z,13.40
2018-06-28T17:59:53.249Z,12.35
2018-06-28T18:05:23.350Z,12.90
2018-06-28T18:10:53.670Z,12.60
2018-06-28T18:16:23.984Z,13.75
2018-06-28T18:21:53.727Z,13.35
2018-06-28T18:27:23.294Z,16.17
2018-06-28T18:32:53.552Z,14.80
2018-06-28T18:38:23.810Z,14.75
2018-06-28T18:43:53.570Z,15.72
2018-06-28T18:49:23.919Z,16.15
2018-06-28T18:54:53.817Z,17.45
2018-06-28T19:00:23.039Z,16.20
2018-06-28T19:05:52.339Z,17.05
2018-06-28T19:11:22.329Z,17.42
2018-06-28T19:16:56.179Z,16.00
2018-06-28T19:22:30.601Z,16.25
2018-06-28T19:27:59.839Z,16.37
2018-06-28T19:33:29.130Z,17.02
2018-06-28T19:39:03.517Z,18.25
2018-06-28T19:44:32.691Z,20.23
2018-06-28T19:50:07.292Z,19.90
2018-06-28T19:55:36.509Z,21.73
2018-06-28T20:01:10.867Z,23.27
2018-06-28T20:06:40.913Z,24.23
2018-06-28T20:12:15.455Z,24.65
2018-06-28T20:18:01.939Z,21.20
2018-06-28T20:23:31.199Z,23.30
2018-06-28T20:29:05.739Z,24.70
2018-06-28T20:34:34.991Z,23.57
2018-06-28T20:40:04.232Z,25.32
2018-06-28T20:45:33.459Z,28.62
2018-06-28T20:51:02.807Z,20.77
2018-06-28T20:56:31.889Z,20.43
2018-06-28T21:02:01.079Z,21.73
2018-06-28T21:07:30.319Z,22.90
2018-06-28T21:12:59.671Z,22.80
2018-06-28T21:18:28.871Z,25.48
2018-06-28T21:23:58.118Z,23.38
2018-06-28T21:29:27.359Z,25.17
2018-06-28T21:34:56.601Z,23.95
2018-06-28T21:40:25.839Z,27.10
2018-06-28T21:45:55.126Z,24.87
2018-06-28T21:51:24.327Z,24.12
2018-06-28T21:56:53.564Z,30.40
2018-06-28T22:02:22.777Z,33.05
2018-06-28T22:07:52.022Z,27.10
2018-06-28T22:13:21.208Z,29.57
2018-06-28T22:18:50.421Z,28.52
2018-06-28T22:24:19.715Z,29.35
2018-06-28T22:29:48.974Z,32.63
2018-06-28T22:35:18.217Z,31.48
2018-06-28T22:40:47.513Z,32.60
2018-06-28T22:46:16.782Z,32.58
2018-06-28T22:51:46.079Z,38.80
2018-06-28T22:57:15.373Z,36.25
2018-06-28T23:02:44.682Z,43.08
2018-06-28T23:08:14.001Z,51.00
2018-06-28T23:13:43.417Z,46.23
2018-06-28T23:19:12.644Z,51.35
2018-06-28T23:24:41.851Z,50.12
2018-06-28T23:30:11.084Z,50.30
2018-06-28T23:35:40.353Z,51.45
2018-06-28T23:41:09.605Z,50.30
2018-06-28T23:46:38.852Z,49.13
2018-06-28T23:52:08.056Z,52.40
2018-06-28T23:57:37.379Z,51.98
